PWSweather.com
Personal Weather Stations
Station Observations
WD4JKH
Forsyth, GA 31029

Forsyth, GA 31029

Lat: 33.033225, Lon: -83.927995

Elevation: 709

Station Type: Davis Vantage VUE

High Low Average
Temperature 63.5°F17.5°C 43.0°F6.1°C 51.5°F10.8°C
Dew Point 38.7°F3.7°C 33.8°F1.0°C 36.7°F2.6°C
Winds 9.2 mph 14.8 kmh Calm Calm 2.0 mph S3.2 kmh S
Wind Gusts 16.0 mph25.7 kmh -- 5.0 mph8.0 kmh
Humidity 75% 34% 59%
Pressure 30.16 in1021.3 mb 30.06 in1017.9 mb -
Precipitation 0.00 in0.0 mm - -
Hour Temp Dew Point Humidity Winds Wind Gusts Pressure Precip Precip Rate Daily Precip Total
12:01 AM 47.3°F8.5°C 36.9°F2.7°C 67% 1.0 mph WNW1.6 kmh WNW 4.0 mph6.4 kmh 30.12 in1020.0 mb 0.00 in0.0 mm 0.00 in0.0 mm 0.00 in0.0 mm
12:06 AM 47.3°F8.5°C 37.4°F3.0°C 68% 1.7 mph WNW2.7 kmh WNW 4.0 mph6.4 kmh 30.11 in1019.6 mb 0.00 in0.0 mm 0.00 in0.0 mm 0.00 in0.0 mm
12:11 AM 47.3°F8.5°C 37.3°F2.9°C 68% 1.3 mph NW2.1 kmh NW 4.0 mph6.4 kmh 30.11 in1019.6 mb 0.00 in0.0 mm 0.00 in0.0 mm 0.00 in0.0 mm
12:16 AM 47.2°F8.4°C 37.3°F2.9°C 68% 1.6 mph NW2.6 kmh NW 4.0 mph6.4 kmh 30.11 in1019.6 mb 0.00 in0.0 mm 0.00 in0.0 mm 0.00 in0.0 mm
12:21 AM 47.2°F8.4°C 37.2°F2.9°C 68% 1.3 mph NW2.1 kmh NW 4.0 mph6.4 kmh 30.11 in1019.6 mb 0.00 in0.0 mm 0.00 in0.0 mm 0.00 in0.0 mm
12:26 AM 47.1°F8.4°C 37.2°F2.9°C 68% 1.0 mph NW1.6 kmh NW 4.0 mph6.4 kmh 30.11 in1019.6 mb 0.00 in0.0 mm 0.00 in0.0 mm 0.00 in0.0 mm
12:31 AM 47.0°F8.3°C 37.5°F3.1°C 69% 1.3 mph NW2.1 kmh NW 4.0 mph6.4 kmh 30.10 in1019.3 mb 0.00 in0.0 mm 0.00 in0.0 mm 0.00 in0.0 mm
12:36 AM 46.9°F8.3°C 37.4°F3.0°C 69% 1.2 mph NW1.9 kmh NW 4.0 mph6.4 kmh 30.10 in1019.3 mb 0.00 in0.0 mm 0.00 in0.0 mm 0.00 in0.0 mm
12:41 AM 46.9°F8.3°C 37.3°F2.9°C 69% 1.5 mph WNW2.4 kmh WNW 4.0 mph6.4 kmh 30.10 in1019.3 mb 0.00 in0.0 mm 0.00 in0.0 mm 0.00 in0.0 mm
12:46 AM 46.8°F8.2°C 37.6°F3.1°C 70% 1.8 mph NW2.9 kmh NW 4.0 mph6.4 kmh 30.09 in1019.0 mb 0.00 in0.0 mm 0.00 in0.0 mm 0.00 in0.0 mm
12:51 AM 46.9°F8.3°C 37.7°F3.2°C 70% 1.9 mph WNW3.1 kmh WNW 5.0 mph8.0 kmh 30.09 in1019.0 mb 0.00 in0.0 mm 0.00 in0.0 mm 0.00 in0.0 mm
12:56 AM 46.9°F8.3°C 37.7°F3.2°C 70% 1.5 mph NW2.4 kmh NW 5.0 mph8.0 kmh 30.09 in1019.0 mb 0.00 in0.0 mm 0.00 in0.0 mm 0.00 in0.0 mm
01:01 AM 46.9°F8.3°C 37.7°F3.2°C 70% 2.0 mph NW3.2 kmh NW 5.0 mph8.0 kmh 30.09 in1019.0 mb 0.00 in0.0 mm 0.00 in0.0 mm 0.00 in0.0 mm
01:06 AM 46.9°F8.3°C 37.6°F3.1°C 70% 2.9 mph NNW4.7 kmh NNW 8.0 mph12.9 kmh 30.08 in1018.6 mb 0.00 in0.0 mm 0.00 in0.0 mm 0.00 in0.0 mm
01:11 AM 47.1°F8.4°C 37.8°F3.2°C 70% 2.3 mph NW3.7 kmh NW 9.0 mph14.5 kmh 30.09 in1019.0 mb 0.00 in0.0 mm 0.00 in0.0 mm 0.00 in0.0 mm
01:16 AM 47.3°F8.5°C 38.1°F3.4°C 70% 2.4 mph WNW3.9 kmh WNW 9.0 mph14.5 kmh 30.09 in1019.0 mb 0.00 in0.0 mm 0.00 in0.0 mm 0.00 in0.0 mm
01:21 AM 47.3°F8.5°C 38.1°F3.4°C 70% 2.1 mph WNW3.4 kmh WNW 9.0 mph14.5 kmh 30.09 in1019.0 mb 0.00 in0.0 mm 0.00 in0.0 mm 0.00 in0.0 mm
01:26 AM 47.4°F8.6°C 38.2°F3.4°C 70% 1.9 mph WNW3.1 kmh WNW 9.0 mph14.5 kmh 30.09 in1019.0 mb 0.00 in0.0 mm 0.00 in0.0 mm 0.00 in0.0 mm
01:31 AM 47.2°F8.4°C 38.0°F3.3°C 70% 2.1 mph WNW3.4 kmh WNW 9.0 mph14.5 kmh 30.09 in1019.0 mb 0.00 in0.0 mm 0.00 in0.0 mm 0.00 in0.0 mm
01:36 AM 47.0°F8.3°C 37.7°F3.2°C 70% 2.7 mph WNW4.3 kmh WNW 9.0 mph14.5 kmh 30.09 in1019.0 mb 0.00 in0.0 mm 0.00 in0.0 mm 0.00 in0.0 mm
01:41 AM 46.8°F8.2°C 38.0°F3.3°C 71% 3.1 mph WNW5.0 kmh WNW 9.0 mph14.5 kmh 30.09 in1019.0 mb 0.00 in0.0 mm 0.00 in0.0 mm 0.00 in0.0 mm
01:46 AM 46.6°F8.1°C 37.8°F3.2°C 71% 2.4 mph WNW3.9 kmh WNW 9.0 mph14.5 kmh 30.09 in1019.0 mb 0.00 in0.0 mm 0.00 in0.0 mm 0.00 in0.0 mm
01:51 AM 46.5°F8.1°C 37.7°F3.2°C 71% 2.2 mph W3.5 kmh W 8.0 mph12.9 kmh 30.09 in1019.0 mb 0.00 in0.0 mm 0.00 in0.0 mm 0.00 in0.0 mm
01:56 AM 46.1°F7.8°C 37.7°F3.2°C 72% 1.1 mph W1.8 kmh W 8.0 mph12.9 kmh 30.09 in1019.0 mb 0.00 in0.0 mm 0.00 in0.0 mm 0.00 in0.0 mm
02:01 AM 45.7°F7.6°C 37.5°F3.1°C 73% 2.7 mph W4.3 kmh W 8.0 mph12.9 kmh 30.09 in1019.0 mb 0.00 in0.0 mm 0.00 in0.0 mm 0.00 in0.0 mm
02:06 AM 45.4°F7.4°C 37.7°F3.2°C 74% 2.9 mph W4.7 kmh W 8.0 mph12.9 kmh 30.10 in1019.3 mb 0.00 in0.0 mm 0.00 in0.0 mm 0.00 in0.0 mm
02:11 AM 45.3°F7.4°C 37.6°F3.1°C 74% 2.2 mph W3.5 kmh W 8.0 mph12.9 kmh 30.10 in1019.3 mb 0.00 in0.0 mm 0.00 in0.0 mm 0.00 in0.0 mm
02:16 AM 45.4°F7.4°C 37.7°F3.2°C 74% 3.3 mph WNW5.3 kmh WNW 9.0 mph14.5 kmh 30.10 in1019.3 mb 0.00 in0.0 mm 0.00 in0.0 mm 0.00 in0.0 mm
02:21 AM 45.5°F7.5°C 37.4°F3.0°C 73% 3.9 mph WNW6.3 kmh WNW 9.0 mph14.5 kmh 30.10 in1019.3 mb 0.00 in0.0 mm 0.00 in0.0 mm 0.00 in0.0 mm
02:26 AM 45.7°F7.6°C 37.6°F3.1°C 73% 2.4 mph WNW3.9 kmh WNW 9.0 mph14.5 kmh 30.10 in1019.3 mb 0.00 in0.0 mm 0.00 in0.0 mm 0.00 in0.0 mm
02:31 AM 45.8°F7.7°C 37.3°F2.9°C 72% 3.3 mph WNW5.3 kmh WNW 9.0 mph14.5 kmh 30.10 in1019.3 mb 0.00 in0.0 mm 0.00 in0.0 mm 0.00 in0.0 mm
02:36 AM 45.8°F7.7°C 37.4°F3.0°C 72% 2.7 mph WNW4.3 kmh WNW 9.0 mph14.5 kmh 30.10 in1019.3 mb 0.00 in0.0 mm 0.00 in0.0 mm 0.00 in0.0 mm
02:42 AM 46.0°F7.8°C 37.6°F3.1°C 72% 5.0 mph WNW8.0 kmh WNW 8.0 mph12.9 kmh 30.10 in1019.3 mb 0.00 in0.0 mm 0.00 in0.0 mm 0.00 in0.0 mm
02:47 AM 46.1°F7.8°C 37.7°F3.2°C 72% 4.3 mph WNW6.9 kmh WNW 9.0 mph14.5 kmh 30.09 in1019.0 mb 0.00 in0.0 mm 0.00 in0.0 mm 0.00 in0.0 mm
02:52 AM 46.1°F7.8°C 37.7°F3.2°C 72% 3.6 mph WNW5.8 kmh WNW 9.0 mph14.5 kmh 30.09 in1019.0 mb 0.00 in0.0 mm 0.00 in0.0 mm 0.00 in0.0 mm
02:56 AM 46.2°F7.9°C 37.3°F2.9°C 71% 3.9 mph NW6.3 kmh NW 9.0 mph14.5 kmh 30.10 in1019.3 mb 0.00 in0.0 mm 0.00 in0.0 mm 0.00 in0.0 mm
03:01 AM 46.1°F7.8°C 37.3°F2.9°C 71% 3.1 mph WNW5.0 kmh WNW 9.0 mph14.5 kmh 30.09 in1019.0 mb 0.00 in0.0 mm 0.00 in0.0 mm 0.00 in0.0 mm
03:07 AM 46.0°F7.8°C 37.2°F2.9°C 71% 3.2 mph WNW5.1 kmh WNW 9.0 mph14.5 kmh 30.10 in1019.3 mb 0.00 in0.0 mm 0.00 in0.0 mm 0.00 in0.0 mm
03:12 AM 46.0°F7.8°C 37.1°F2.8°C 71% 3.2 mph W5.1 kmh W 9.0 mph14.5 kmh 30.09 in1019.0 mb 0.00 in0.0 mm 0.00 in0.0 mm 0.00 in0.0 mm
03:17 AM 46.0°F7.8°C 37.2°F2.9°C 71% 4.0 mph WNW6.4 kmh WNW 9.0 mph14.5 kmh 30.09 in1019.0 mb 0.00 in0.0 mm 0.00 in0.0 mm 0.00 in0.0 mm
03:22 AM 46.0°F7.8°C 37.2°F2.9°C 71% 4.5 mph WNW7.2 kmh WNW 9.0 mph14.5 kmh 30.10 in1019.3 mb 0.00 in0.0 mm 0.00 in0.0 mm 0.00 in0.0 mm
03:27 AM 45.9°F7.7°C 37.5°F3.1°C 72% 2.5 mph WNW4.0 kmh WNW 9.0 mph14.5 kmh 30.09 in1019.0 mb 0.00 in0.0 mm 0.00 in0.0 mm 0.00 in0.0 mm
03:32 AM 45.8°F7.7°C 37.4°F3.0°C 72% 3.7 mph W6.0 kmh W 10.0 mph16.1 kmh 30.10 in1019.3 mb 0.00 in0.0 mm 0.00 in0.0 mm 0.00 in0.0 mm
03:37 AM 45.6°F7.6°C 37.1°F2.8°C 72% 3.3 mph WNW5.3 kmh WNW 10.0 mph16.1 kmh 30.10 in1019.3 mb 0.00 in0.0 mm 0.00 in0.0 mm 0.00 in0.0 mm
03:42 AM 45.4°F7.4°C 36.9°F2.7°C 72% 3.8 mph WNW6.1 kmh WNW 10.0 mph16.1 kmh 30.10 in1019.3 mb 0.00 in0.0 mm 0.00 in0.0 mm 0.00 in0.0 mm
03:47 AM 45.3°F7.4°C 37.2°F2.9°C 73% 2.9 mph NW4.7 kmh NW 10.0 mph16.1 kmh 30.10 in1019.3 mb 0.00 in0.0 mm 0.00 in0.0 mm 0.00 in0.0 mm
03:52 AM 45.1°F7.3°C 37.0°F2.8°C 73% 4.3 mph WNW6.9 kmh WNW 10.0 mph16.1 kmh 30.10 in1019.3 mb 0.00 in0.0 mm 0.00 in0.0 mm 0.00 in0.0 mm
03:57 AM 45.0°F7.2°C 37.2°F2.9°C 74% 5.0 mph WNW8.0 kmh WNW 10.0 mph16.1 kmh 30.10 in1019.3 mb 0.00 in0.0 mm 0.00 in0.0 mm 0.00 in0.0 mm
04:02 AM 44.9°F7.2°C 37.2°F2.9°C 74% 3.3 mph WNW5.3 kmh WNW 10.0 mph16.1 kmh 30.10 in1019.3 mb 0.00 in0.0 mm 0.00 in0.0 mm 0.00 in0.0 mm
04:07 AM 44.7°F7.1°C 36.9°F2.7°C 74% 4.0 mph WNW6.4 kmh WNW 10.0 mph16.1 kmh 30.10 in1019.3 mb 0.00 in0.0 mm 0.00 in0.0 mm 0.00 in0.0 mm
04:12 AM 44.7°F7.1°C 37.0°F2.8°C 74% 3.1 mph WNW5.0 kmh WNW 11.0 mph17.7 kmh 30.09 in1019.0 mb 0.00 in0.0 mm 0.00 in0.0 mm 0.00 in0.0 mm
04:17 AM 44.7°F7.1°C 37.0°F2.8°C 74% 3.8 mph WNW6.1 kmh WNW 11.0 mph17.7 kmh 30.09 in1019.0 mb 0.00 in0.0 mm 0.00 in0.0 mm 0.00 in0.0 mm
04:22 AM 44.7°F7.1°C 36.9°F2.7°C 74% 4.0 mph NW6.4 kmh NW 11.0 mph17.7 kmh 30.09 in1019.0 mb 0.00 in0.0 mm 0.00 in0.0 mm 0.00 in0.0 mm
04:27 AM 44.7°F7.1°C 36.9°F2.7°C 74% 4.7 mph WNW7.6 kmh WNW 11.0 mph17.7 kmh 30.09 in1019.0 mb 0.00 in0.0 mm 0.00 in0.0 mm 0.00 in0.0 mm
04:32 AM 44.7°F7.1°C 37.0°F2.8°C 74% 2.5 mph NW4.0 kmh NW 11.0 mph17.7 kmh 30.09 in1019.0 mb 0.00 in0.0 mm 0.00 in0.0 mm 0.00 in0.0 mm
04:37 AM 44.7°F7.1°C 37.0°F2.8°C 74% 3.6 mph NW5.8 kmh NW 10.0 mph16.1 kmh 30.09 in1019.0 mb 0.00 in0.0 mm 0.00 in0.0 mm 0.00 in0.0 mm
04:42 AM 44.5°F6.9°C 36.8°F2.7°C 74% 3.0 mph NW4.8 kmh NW 10.0 mph16.1 kmh 30.09 in1019.0 mb 0.00 in0.0 mm 0.00 in0.0 mm 0.00 in0.0 mm
04:47 AM 44.5°F6.9°C 36.7°F2.6°C 74% 3.3 mph NW5.3 kmh NW 9.0 mph14.5 kmh 30.09 in1019.0 mb 0.00 in0.0 mm 0.00 in0.0 mm 0.00 in0.0 mm
04:52 AM 44.5°F6.9°C 36.8°F2.7°C 74% 3.1 mph NW5.0 kmh NW 9.0 mph14.5 kmh 30.09 in1019.0 mb 0.00 in0.0 mm 0.00 in0.0 mm 0.00 in0.0 mm
04:57 AM 44.5°F6.9°C 36.5°F2.5°C 73% 2.6 mph NW4.2 kmh NW 9.0 mph14.5 kmh 30.09 in1019.0 mb 0.00 in0.0 mm 0.00 in0.0 mm 0.00 in0.0 mm
05:02 AM 44.5°F6.9°C 36.5°F2.5°C 73% 4.0 mph NW6.4 kmh NW 9.0 mph14.5 kmh 30.09 in1019.0 mb 0.00 in0.0 mm 0.00 in0.0 mm 0.00 in0.0 mm
05:07 AM 44.6°F7.0°C 36.6°F2.6°C 73% 3.8 mph NW6.1 kmh NW 9.0 mph14.5 kmh 30.09 in1019.0 mb 0.00 in0.0 mm 0.00 in0.0 mm 0.00 in0.0 mm
05:12 AM 44.5°F6.9°C 36.5°F2.5°C 73% 2.1 mph WNW3.4 kmh WNW 9.0 mph14.5 kmh 30.09 in1019.0 mb 0.00 in0.0 mm 0.00 in0.0 mm 0.00 in0.0 mm
05:17 AM 44.4°F6.9°C 36.4°F2.4°C 73% 2.4 mph WNW3.9 kmh WNW 9.0 mph14.5 kmh 30.10 in1019.3 mb 0.00 in0.0 mm 0.00 in0.0 mm 0.00 in0.0 mm
05:22 AM 44.4°F6.9°C 36.4°F2.4°C 73% 3.4 mph WNW5.5 kmh WNW 9.0 mph14.5 kmh 30.10 in1019.3 mb 0.00 in0.0 mm 0.00 in0.0 mm 0.00 in0.0 mm
05:27 AM 44.4°F6.9°C 36.3°F2.4°C 73% 2.4 mph NW3.9 kmh NW 8.0 mph12.9 kmh 30.10 in1019.3 mb 0.00 in0.0 mm 0.00 in0.0 mm 0.00 in0.0 mm
05:32 AM 44.3°F6.8°C 36.2°F2.3°C 73% 2.8 mph WNW4.5 kmh WNW 8.0 mph12.9 kmh 30.10 in1019.3 mb 0.00 in0.0 mm 0.00 in0.0 mm 0.00 in0.0 mm
05:37 AM 44.3°F6.8°C 36.3°F2.4°C 73% 2.8 mph NW4.5 kmh NW 8.0 mph12.9 kmh 30.10 in1019.3 mb 0.00 in0.0 mm 0.00 in0.0 mm 0.00 in0.0 mm
05:42 AM 44.2°F6.8°C 36.2°F2.3°C 73% 3.2 mph NW5.1 kmh NW 7.0 mph11.3 kmh 30.10 in1019.3 mb 0.00 in0.0 mm 0.00 in0.0 mm 0.00 in0.0 mm
05:47 AM 44.1°F6.7°C 36.1°F2.3°C 73% 1.7 mph WNW2.7 kmh WNW 7.0 mph11.3 kmh 30.10 in1019.3 mb 0.00 in0.0 mm 0.00 in0.0 mm 0.00 in0.0 mm
05:51 AM 44.0°F6.7°C 36.0°F2.2°C 73% 1.7 mph NW2.7 kmh NW 7.0 mph11.3 kmh 30.10 in1019.3 mb 0.00 in0.0 mm 0.00 in0.0 mm 0.00 in0.0 mm
05:56 AM 44.0°F6.7°C 36.0°F2.2°C 73% 2.0 mph WNW3.2 kmh WNW 6.0 mph9.7 kmh 30.10 in1019.3 mb 0.00 in0.0 mm 0.00 in0.0 mm 0.00 in0.0 mm
06:01 AM 43.9°F6.6°C 35.9°F2.2°C 73% 2.0 mph NW3.2 kmh NW 6.0 mph9.7 kmh 30.10 in1019.3 mb 0.00 in0.0 mm 0.00 in0.0 mm 0.00 in0.0 mm
06:06 AM 43.9°F6.6°C 35.9°F2.2°C 73% 2.0 mph NW3.2 kmh NW 6.0 mph9.7 kmh 30.11 in1019.6 mb 0.00 in0.0 mm 0.00 in0.0 mm 0.00 in0.0 mm
06:11 AM 43.9°F6.6°C 35.9°F2.2°C 73% 2.9 mph NW4.7 kmh NW 6.0 mph9.7 kmh 30.10 in1019.3 mb 0.00 in0.0 mm 0.00 in0.0 mm 0.00 in0.0 mm
06:16 AM 43.9°F6.6°C 35.9°F2.2°C 73% 1.9 mph NW3.1 kmh NW 6.0 mph9.7 kmh 30.10 in1019.3 mb 0.00 in0.0 mm 0.00 in0.0 mm 0.00 in0.0 mm
06:21 AM 43.9°F6.6°C 35.9°F2.2°C 73% 2.6 mph NW4.2 kmh NW 6.0 mph9.7 kmh 30.11 in1019.6 mb 0.00 in0.0 mm 0.00 in0.0 mm 0.00 in0.0 mm
06:26 AM 43.9°F6.6°C 35.9°F2.2°C 73% 2.0 mph NW3.2 kmh NW 7.0 mph11.3 kmh 30.11 in1019.6 mb 0.00 in0.0 mm 0.00 in0.0 mm 0.00 in0.0 mm
06:31 AM 43.9°F6.6°C 35.9°F2.2°C 73% 2.6 mph NW4.2 kmh NW 7.0 mph11.3 kmh 30.11 in1019.6 mb 0.00 in0.0 mm 0.00 in0.0 mm 0.00 in0.0 mm
06:36 AM 43.8°F6.6°C 35.8°F2.1°C 73% 2.7 mph NW4.3 kmh NW 7.0 mph11.3 kmh 30.11 in1019.6 mb 0.00 in0.0 mm 0.00 in0.0 mm 0.00 in0.0 mm
06:41 AM 43.8°F6.6°C 35.8°F2.1°C 73% 2.5 mph NW4.0 kmh NW 6.0 mph9.7 kmh 30.11 in1019.6 mb 0.00 in0.0 mm 0.00 in0.0 mm 0.00 in0.0 mm
06:46 AM 43.7°F6.5°C 35.6°F2.0°C 73% 2.2 mph NW3.5 kmh NW 6.0 mph9.7 kmh 30.11 in1019.6 mb 0.00 in0.0 mm 0.00 in0.0 mm 0.00 in0.0 mm
06:51 AM 43.6°F6.4°C 35.6°F2.0°C 73% 1.6 mph NW2.6 kmh NW 6.0 mph9.7 kmh 30.11 in1019.6 mb 0.00 in0.0 mm 0.00 in0.0 mm 0.00 in0.0 mm
06:56 AM 43.5°F6.4°C 35.8°F2.1°C 74% 1.3 mph WNW2.1 kmh WNW 6.0 mph9.7 kmh 30.11 in1019.6 mb 0.00 in0.0 mm 0.00 in0.0 mm 0.00 in0.0 mm
07:01 AM 43.5°F6.4°C 35.8°F2.1°C 74% 2.7 mph NW4.3 kmh NW 6.0 mph9.7 kmh 30.11 in1019.6 mb 0.00 in0.0 mm 0.00 in0.0 mm 0.00 in0.0 mm
07:06 AM 43.5°F6.4°C 35.8°F2.1°C 74% 2.8 mph NW4.5 kmh NW 6.0 mph9.7 kmh 30.11 in1019.6 mb 0.00 in0.0 mm 0.00 in0.0 mm 0.00 in0.0 mm
07:11 AM 43.5°F6.4°C 35.8°F2.1°C 74% 2.7 mph WNW4.3 kmh WNW 7.0 mph11.3 kmh 30.11 in1019.6 mb 0.00 in0.0 mm 0.00 in0.0 mm 0.00 in0.0 mm
07:16 AM 43.4°F6.3°C 35.7°F2.1°C 74% 1.8 mph NW2.9 kmh NW 7.0 mph11.3 kmh 30.11 in1019.6 mb 0.00 in0.0 mm 0.00 in0.0 mm 0.00 in0.0 mm
07:21 AM 43.3°F6.3°C 35.6°F2.0°C 74% 2.2 mph NW3.5 kmh NW 7.0 mph11.3 kmh 30.11 in1019.6 mb 0.00 in0.0 mm 0.00 in0.0 mm 0.00 in0.0 mm
07:26 AM 43.2°F6.2°C 35.5°F1.9°C 74% 1.6 mph NNW2.6 kmh NNW 7.0 mph11.3 kmh 30.11 in1019.6 mb 0.00 in0.0 mm 0.00 in0.0 mm 0.00 in0.0 mm
07:31 AM 43.2°F6.2°C 35.5°F1.9°C 74% 1.4 mph NW2.3 kmh NW 7.0 mph11.3 kmh 30.11 in1019.6 mb 0.00 in0.0 mm 0.00 in0.0 mm 0.00 in0.0 mm
07:36 AM 43.1°F6.2°C 35.4°F1.9°C 74% 1.8 mph WNW2.9 kmh WNW 7.0 mph11.3 kmh 30.11 in1019.6 mb 0.00 in0.0 mm 0.00 in0.0 mm 0.00 in0.0 mm
07:41 AM 43.0°F6.1°C 35.3°F1.8°C 74% 2.6 mph NW4.2 kmh NW 7.0 mph11.3 kmh 30.12 in1020.0 mb 0.00 in0.0 mm 0.00 in0.0 mm 0.00 in0.0 mm
07:46 AM 43.1°F6.2°C 35.4°F1.9°C 74% 1.8 mph WNW2.9 kmh WNW 7.0 mph11.3 kmh 30.11 in1019.6 mb 0.00 in0.0 mm 0.00 in0.0 mm 0.00 in0.0 mm
07:51 AM 43.2°F6.2°C 35.5°F1.9°C 74% 3.0 mph WNW4.8 kmh WNW 7.0 mph11.3 kmh 30.12 in1020.0 mb 0.00 in0.0 mm 0.00 in0.0 mm 0.00 in0.0 mm
07:56 AM 43.3°F6.3°C 35.6°F2.0°C 74% 1.1 mph WNW1.8 kmh WNW 7.0 mph11.3 kmh 30.12 in1020.0 mb 0.00 in0.0 mm 0.00 in0.0 mm 0.00 in0.0 mm
08:01 AM 43.2°F6.2°C 35.5°F1.9°C 74% 1.3 mph W2.1 kmh W 6.0 mph9.7 kmh 30.12 in1020.0 mb 0.00 in0.0 mm 0.00 in0.0 mm 0.00 in0.0 mm
08:06 AM 43.2°F6.2°C 35.5°F1.9°C 74% 1.0 mph WNW1.6 kmh WNW 6.0 mph9.7 kmh 30.12 in1020.0 mb 0.00 in0.0 mm 0.00 in0.0 mm 0.00 in0.0 mm
08:11 AM 43.1°F6.2°C 35.4°F1.9°C 74% Calm Calm 3.0 mph4.8 kmh 30.12 in1020.0 mb 0.00 in0.0 mm 0.00 in0.0 mm 0.00 in0.0 mm
08:16 AM 43.1°F6.2°C 35.4°F1.9°C 74% 1.1 mph W1.8 kmh W 3.0 mph4.8 kmh 30.12 in1020.0 mb 0.00 in0.0 mm 0.00 in0.0 mm 0.00 in0.0 mm
08:21 AM 43.1°F6.2°C 35.8°F2.1°C 75% 1.1 mph NW1.8 kmh NW 4.0 mph6.4 kmh 30.13 in1020.3 mb 0.00 in0.0 mm 0.00 in0.0 mm 0.00 in0.0 mm
08:26 AM 43.1°F6.2°C 35.4°F1.9°C 74% 2.0 mph WNW3.2 kmh WNW 4.0 mph6.4 kmh 30.13 in1020.3 mb 0.00 in0.0 mm 0.00 in0.0 mm 0.00 in0.0 mm
08:31 AM 43.2°F6.2°C 35.8°F2.1°C 75% 1.1 mph W1.8 kmh W 4.0 mph6.4 kmh 30.13 in1020.3 mb 0.00 in0.0 mm 0.00 in0.0 mm 0.00 in0.0 mm
08:36 AM 43.3°F6.3°C 35.9°F2.2°C 75% 1.0 mph W1.6 kmh W 4.0 mph6.4 kmh 30.14 in1020.7 mb 0.00 in0.0 mm 0.00 in0.0 mm 0.00 in0.0 mm
08:41 AM 43.3°F6.3°C 36.0°F2.2°C 75% 1.7 mph W2.7 kmh W 6.0 mph9.7 kmh 30.14 in1020.7 mb 0.00 in0.0 mm 0.00 in0.0 mm 0.00 in0.0 mm
08:46 AM 43.5°F6.4°C 36.2°F2.3°C 75% 2.8 mph W4.5 kmh W 6.0 mph9.7 kmh 30.15 in1021.0 mb 0.00 in0.0 mm 0.00 in0.0 mm 0.00 in0.0 mm
08:51 AM 43.7°F6.5°C 36.4°F2.4°C 75% 3.3 mph W5.3 kmh W 6.0 mph9.7 kmh 30.15 in1021.0 mb 0.00 in0.0 mm 0.00 in0.0 mm 0.00 in0.0 mm
08:57 AM 43.7°F6.5°C 36.4°F2.4°C 75% 3.0 mph WSW4.8 kmh WSW 6.0 mph9.7 kmh 30.15 in1021.0 mb 0.00 in0.0 mm 0.00 in0.0 mm 0.00 in0.0 mm
09:02 AM 44.0°F6.7°C 36.3°F2.4°C 74% 1.5 mph WNW2.4 kmh WNW 6.0 mph9.7 kmh 30.14 in1020.7 mb 0.00 in0.0 mm 0.00 in0.0 mm 0.00 in0.0 mm
09:07 AM 44.4°F6.9°C 36.6°F2.6°C 74% 1.0 mph W1.6 kmh W 6.0 mph9.7 kmh 30.14 in1020.7 mb 0.00 in0.0 mm 0.00 in0.0 mm 0.00 in0.0 mm
09:12 AM 44.8°F7.1°C 36.4°F2.4°C 72% 1.0 mph WNW1.6 kmh WNW 6.0 mph9.7 kmh 30.14 in1020.7 mb 0.00 in0.0 mm 0.00 in0.0 mm 0.00 in0.0 mm
09:17 AM 45.2°F7.3°C 36.4°F2.4°C 71% 2.7 mph NW4.3 kmh NW 6.0 mph9.7 kmh 30.14 in1020.7 mb 0.00 in0.0 mm 0.00 in0.0 mm 0.00 in0.0 mm
09:22 AM 45.6°F7.6°C 36.5°F2.5°C 70% 2.1 mph WNW3.4 kmh WNW 6.0 mph9.7 kmh 30.15 in1021.0 mb 0.00 in0.0 mm 0.00 in0.0 mm 0.00 in0.0 mm
09:27 AM 46.0°F7.8°C 36.5°F2.5°C 69% 1.9 mph NW3.1 kmh NW 6.0 mph9.7 kmh 30.15 in1021.0 mb 0.00 in0.0 mm 0.00 in0.0 mm 0.00 in0.0 mm
09:32 AM 46.5°F8.1°C 36.6°F2.6°C 68% 1.2 mph NW1.9 kmh NW 6.0 mph9.7 kmh 30.15 in1021.0 mb 0.00 in0.0 mm 0.00 in0.0 mm 0.00 in0.0 mm
09:37 AM 46.8°F8.2°C 36.0°F2.2°C 66% 2.8 mph NW4.5 kmh NW 7.0 mph11.3 kmh 30.15 in1021.0 mb 0.00 in0.0 mm 0.00 in0.0 mm 0.00 in0.0 mm
09:42 AM 47.2°F8.4°C 36.1°F2.3°C 65% 1.1 mph NW1.8 kmh NW 7.0 mph11.3 kmh 30.15 in1021.0 mb 0.00 in0.0 mm 0.00 in0.0 mm 0.00 in0.0 mm
09:47 AM 47.6°F8.7°C 36.4°F2.4°C 65% 1.7 mph NW2.7 kmh NW 8.0 mph12.9 kmh 30.15 in1021.0 mb 0.00 in0.0 mm 0.00 in0.0 mm 0.00 in0.0 mm
09:52 AM 48.1°F8.9°C 36.2°F2.3°C 63% 1.6 mph NW2.6 kmh NW 8.0 mph12.9 kmh 30.16 in1021.3 mb 0.00 in0.0 mm 0.00 in0.0 mm 0.00 in0.0 mm
09:57 AM 48.6°F9.2°C 36.2°F2.3°C 62% 1.1 mph NW1.8 kmh NW 8.0 mph12.9 kmh 30.15 in1021.0 mb 0.00 in0.0 mm 0.00 in0.0 mm 0.00 in0.0 mm
10:02 AM 49.2°F9.6°C 36.4°F2.4°C 61% 1.9 mph NW3.1 kmh NW 8.0 mph12.9 kmh 30.15 in1021.0 mb 0.00 in0.0 mm 0.00 in0.0 mm 0.00 in0.0 mm
10:07 AM 49.7°F9.8°C 35.6°F2.0°C 58% 3.0 mph NW4.8 kmh NW 8.0 mph12.9 kmh 30.16 in1021.3 mb 0.00 in0.0 mm 0.00 in0.0 mm 0.00 in0.0 mm
10:12 AM 50.1°F10.1°C 36.0°F2.2°C 58% 1.7 mph NNW2.7 kmh NNW 8.0 mph12.9 kmh 30.16 in1021.3 mb 0.00 in0.0 mm 0.00 in0.0 mm 0.00 in0.0 mm
10:17 AM 50.6°F10.3°C 36.0°F2.2°C 57% 3.5 mph N5.6 kmh N 8.0 mph12.9 kmh 30.16 in1021.3 mb 0.00 in0.0 mm 0.00 in0.0 mm 0.00 in0.0 mm
10:22 AM 50.8°F10.4°C 36.2°F2.3°C 57% 3.7 mph NW6.0 kmh NW 9.0 mph14.5 kmh 30.16 in1021.3 mb 0.00 in0.0 mm 0.00 in0.0 mm 0.00 in0.0 mm
10:27 AM 51.3°F10.7°C 36.2°F2.3°C 56% 2.3 mph NNW3.7 kmh NNW 9.0 mph14.5 kmh 30.15 in1021.0 mb 0.00 in0.0 mm 0.00 in0.0 mm 0.00 in0.0 mm
10:32 AM 51.8°F11.0°C 35.7°F2.1°C 54% 2.6 mph N4.2 kmh N 9.0 mph14.5 kmh 30.15 in1021.0 mb 0.00 in0.0 mm 0.00 in0.0 mm 0.00 in0.0 mm
10:37 AM 52.0°F11.1°C 35.9°F2.2°C 54% 3.3 mph NNE5.3 kmh NNE 9.0 mph14.5 kmh 30.15 in1021.0 mb 0.00 in0.0 mm 0.00 in0.0 mm 0.00 in0.0 mm
10:42 AM 52.2°F11.2°C 35.6°F2.0°C 53% 2.4 mph NNW3.9 kmh NNW 8.0 mph12.9 kmh 30.15 in1021.0 mb 0.00 in0.0 mm 0.00 in0.0 mm 0.00 in0.0 mm
10:47 AM 52.6°F11.4°C 36.0°F2.2°C 53% 3.4 mph NE5.5 kmh NE 8.0 mph12.9 kmh 30.16 in1021.3 mb 0.00 in0.0 mm 0.00 in0.0 mm 0.00 in0.0 mm
10:52 AM 52.7°F11.5°C 35.1°F1.7°C 51% 3.8 mph NNE6.1 kmh NNE 8.0 mph12.9 kmh 30.15 in1021.0 mb 0.00 in0.0 mm 0.00 in0.0 mm 0.00 in0.0 mm
10:57 AM 53.0°F11.7°C 35.3°F1.8°C 51% 3.0 mph NNW4.8 kmh NNW 8.0 mph12.9 kmh 30.15 in1021.0 mb 0.00 in0.0 mm 0.00 in0.0 mm 0.00 in0.0 mm
11:02 AM 53.5°F11.9°C 36.3°F2.4°C 52% 1.0 mph N1.6 kmh N 8.0 mph12.9 kmh 30.15 in1021.0 mb 0.00 in0.0 mm 0.00 in0.0 mm 0.00 in0.0 mm
11:07 AM 53.5°F11.9°C 36.3°F2.4°C 52% 3.1 mph NE5.0 kmh NE 8.0 mph12.9 kmh 30.15 in1021.0 mb 0.00 in0.0 mm 0.00 in0.0 mm 0.00 in0.0 mm
11:12 AM 53.6°F12.0°C 36.9°F2.7°C 53% 3.8 mph NE6.1 kmh NE 9.0 mph14.5 kmh 30.15 in1021.0 mb 0.00 in0.0 mm 0.00 in0.0 mm 0.00 in0.0 mm
11:17 AM 53.9°F12.2°C 36.7°F2.6°C 52% 3.6 mph NNE5.8 kmh NNE 10.0 mph16.1 kmh 30.14 in1020.7 mb 0.00 in0.0 mm 0.00 in0.0 mm 0.00 in0.0 mm
11:22 AM 54.3°F12.4°C 37.1°F2.8°C 52% 2.7 mph NE4.3 kmh NE 10.0 mph16.1 kmh 30.14 in1020.7 mb 0.00 in0.0 mm 0.00 in0.0 mm 0.00 in0.0 mm
11:27 AM 54.5°F12.5°C 36.2°F2.3°C 50% 5.0 mph NE8.0 kmh NE 10.0 mph16.1 kmh 30.14 in1020.7 mb 0.00 in0.0 mm 0.00 in0.0 mm 0.00 in0.0 mm
11:32 AM 54.9°F12.7°C 36.6°F2.6°C 50% 4.0 mph NE6.4 kmh NE 10.0 mph16.1 kmh 30.13 in1020.3 mb 0.00 in0.0 mm 0.00 in0.0 mm 0.00 in0.0 mm
11:37 AM 55.5°F13.1°C 35.6°F2.0°C 47% 9.2 mph NE14.8 kmh NE 16.0 mph25.7 kmh 30.12 in1020.0 mb 0.00 in0.0 mm 0.00 in0.0 mm 0.00 in0.0 mm
11:42 AM 55.9°F13.3°C 36.4°F2.4°C 48% 2.4 mph NNE3.9 kmh NNE 16.0 mph25.7 kmh 30.11 in1019.6 mb 0.00 in0.0 mm 0.00 in0.0 mm 0.00 in0.0 mm
11:47 AM 56.2°F13.4°C 35.6°F2.0°C 46% 5.3 mph NNE8.5 kmh NNE 16.0 mph25.7 kmh 30.11 in1019.6 mb 0.00 in0.0 mm 0.00 in0.0 mm 0.00 in0.0 mm
11:52 AM 56.9°F13.8°C 36.3°F2.4°C 46% 2.0 mph NNE3.2 kmh NNE 16.0 mph25.7 kmh 30.11 in1019.6 mb 0.00 in0.0 mm 0.00 in0.0 mm 0.00 in0.0 mm
11:57 AM 57.0°F13.9°C 35.2°F1.8°C 44% 4.1 mph NE6.6 kmh NE 12.0 mph19.3 kmh 30.11 in1019.6 mb 0.00 in0.0 mm 0.00 in0.0 mm 0.00 in0.0 mm
12:02 PM 56.7°F13.7°C 36.1°F2.3°C 46% 7.1 mph ENE11.4 kmh ENE 12.0 mph19.3 kmh 30.11 in1019.6 mb 0.00 in0.0 mm 0.00 in0.0 mm 0.00 in0.0 mm
12:07 PM 56.8°F13.8°C 37.8°F3.2°C 49% 3.1 mph E5.0 kmh E 11.0 mph17.7 kmh 30.11 in1019.6 mb 0.00 in0.0 mm 0.00 in0.0 mm 0.00 in0.0 mm
12:13 PM 57.0°F13.9°C 37.5°F3.1°C 48% 2.3 mph NE3.7 kmh NE 11.0 mph17.7 kmh 30.10 in1019.3 mb 0.00 in0.0 mm 0.00 in0.0 mm 0.00 in0.0 mm
12:18 PM 57.0°F13.9°C 35.8°F2.1°C 45% 7.2 mph NE11.6 kmh NE 12.0 mph19.3 kmh 30.10 in1019.3 mb 0.00 in0.0 mm 0.00 in0.0 mm 0.00 in0.0 mm
12:22 PM 56.8°F13.8°C 35.6°F2.0°C 45% 4.6 mph NE7.4 kmh NE 12.0 mph19.3 kmh 30.10 in1019.3 mb 0.00 in0.0 mm 0.00 in0.0 mm 0.00 in0.0 mm
12:27 PM 56.8°F13.8°C 35.7°F2.1°C 45% 3.2 mph NE5.1 kmh NE 12.0 mph19.3 kmh 30.09 in1019.0 mb 0.00 in0.0 mm 0.00 in0.0 mm 0.00 in0.0 mm
12:32 PM 57.0°F13.9°C 35.8°F2.1°C 45% 2.9 mph NE4.7 kmh NE 12.0 mph19.3 kmh 30.09 in1019.0 mb 0.00 in0.0 mm 0.00 in0.0 mm 0.00 in0.0 mm
12:38 PM 57.2°F14.0°C 34.9°F1.6°C 43% 4.5 mph ENE7.2 kmh ENE 11.0 mph17.7 kmh 30.08 in1018.6 mb 0.00 in0.0 mm 0.00 in0.0 mm 0.00 in0.0 mm
12:43 PM 57.2°F14.0°C 36.0°F2.2°C 45% 1.1 mph NE1.8 kmh NE 11.0 mph17.7 kmh 30.08 in1018.6 mb 0.00 in0.0 mm 0.00 in0.0 mm 0.00 in0.0 mm
12:48 PM 58.0°F14.4°C 35.5°F1.9°C 43% 3.9 mph NE6.3 kmh NE 11.0 mph17.7 kmh 30.08 in1018.6 mb 0.00 in0.0 mm 0.00 in0.0 mm 0.00 in0.0 mm
12:53 PM 57.8°F14.3°C 35.3°F1.8°C 43% 2.0 mph ENE3.2 kmh ENE 11.0 mph17.7 kmh 30.08 in1018.6 mb 0.00 in0.0 mm 0.00 in0.0 mm 0.00 in0.0 mm
12:58 PM 58.4°F14.7°C 36.5°F2.5°C 44% Calm Calm 9.0 mph14.5 kmh 30.08 in1018.6 mb 0.00 in0.0 mm 0.00 in0.0 mm 0.00 in0.0 mm
01:03 PM 59.0°F15.0°C 36.5°F2.5°C 43% Calm Calm 9.0 mph14.5 kmh 30.08 in1018.6 mb 0.00 in0.0 mm 0.00 in0.0 mm 0.00 in0.0 mm
01:08 PM 59.0°F15.0°C 35.8°F2.1°C 42% 1.0 mph NNE1.6 kmh NNE 6.0 mph9.7 kmh 30.08 in1018.6 mb 0.00 in0.0 mm 0.00 in0.0 mm 0.00 in0.0 mm
01:13 PM 59.1°F15.1°C 35.9°F2.2°C 42% Calm Calm 4.0 mph6.4 kmh 30.07 in1018.3 mb 0.00 in0.0 mm 0.00 in0.0 mm 0.00 in0.0 mm
01:18 PM 59.3°F15.2°C 36.1°F2.3°C 42% 2.5 mph E4.0 kmh E 4.0 mph6.4 kmh 30.08 in1018.6 mb 0.00 in0.0 mm 0.00 in0.0 mm 0.00 in0.0 mm
01:23 PM 59.1°F15.1°C 35.9°F2.2°C 42% 2.0 mph E3.2 kmh E 5.0 mph8.0 kmh 30.07 in1018.3 mb 0.00 in0.0 mm 0.00 in0.0 mm 0.00 in0.0 mm
01:28 PM 59.2°F15.1°C 36.6°F2.6°C 43% 1.0 mph SW1.6 kmh SW 5.0 mph8.0 kmh 30.07 in1018.3 mb 0.00 in0.0 mm 0.00 in0.0 mm 0.00 in0.0 mm
01:33 PM 59.7°F15.4°C 35.3°F1.8°C 40% 1.0 mph WSW1.6 kmh WSW 5.0 mph8.0 kmh 30.07 in1018.3 mb 0.00 in0.0 mm 0.00 in0.0 mm 0.00 in0.0 mm
01:38 PM 59.5°F15.3°C 35.6°F2.0°C 41% 1.0 mph SW1.6 kmh SW 5.0 mph8.0 kmh 30.07 in1018.3 mb 0.00 in0.0 mm 0.00 in0.0 mm 0.00 in0.0 mm
01:43 PM 59.9°F15.5°C 35.4°F1.9°C 40% Calm Calm 1.0 mph1.6 kmh 30.07 in1018.3 mb 0.00 in0.0 mm 0.00 in0.0 mm 0.00 in0.0 mm
01:48 PM 59.8°F15.4°C 35.3°F1.8°C 40% Calm Calm 1.0 mph1.6 kmh 30.07 in1018.3 mb 0.00 in0.0 mm 0.00 in0.0 mm 0.00 in0.0 mm
01:53 PM 60.0°F15.6°C 35.4°F1.9°C 40% 1.0 mph ESE1.6 kmh ESE 1.0 mph1.6 kmh 30.07 in1018.3 mb 0.00 in0.0 mm 0.00 in0.0 mm 0.00 in0.0 mm
01:57 PM 60.1°F15.6°C 36.2°F2.3°C 41% 1.7 mph E2.7 kmh E 4.0 mph6.4 kmh 30.07 in1018.3 mb 0.00 in0.0 mm 0.00 in0.0 mm 0.00 in0.0 mm
02:02 PM 60.4°F15.8°C 36.6°F2.6°C 41% Calm Calm 4.0 mph6.4 kmh 30.07 in1018.3 mb 0.00 in0.0 mm 0.00 in0.0 mm 0.00 in0.0 mm
02:07 PM 60.8°F16.0°C 36.3°F2.4°C 40% Calm Calm 4.0 mph6.4 kmh 30.07 in1018.3 mb 0.00 in0.0 mm 0.00 in0.0 mm 0.00 in0.0 mm
02:12 PM 61.0°F16.1°C 35.7°F2.1°C 39% 1.3 mph SE2.1 kmh SE 4.0 mph6.4 kmh 30.07 in1018.3 mb 0.00 in0.0 mm 0.00 in0.0 mm 0.00 in0.0 mm
02:17 PM 61.2°F16.2°C 35.2°F1.8°C 38% 1.0 mph S1.6 kmh S 2.0 mph3.2 kmh 30.07 in1018.3 mb 0.00 in0.0 mm 0.00 in0.0 mm 0.00 in0.0 mm
02:22 PM 61.0°F16.1°C 35.2°F1.8°C 38% Calm Calm 2.0 mph3.2 kmh 30.07 in1018.3 mb 0.00 in0.0 mm 0.00 in0.0 mm 0.00 in0.0 mm
02:27 PM 61.2°F16.2°C 35.2°F1.8°C 38% 1.0 mph WSW1.6 kmh WSW 2.0 mph3.2 kmh 30.07 in1018.3 mb 0.00 in0.0 mm 0.00 in0.0 mm 0.00 in0.0 mm
02:32 PM 61.3°F16.3°C 34.6°F1.4°C 37% Calm Calm 1.0 mph1.6 kmh 30.07 in1018.3 mb 0.00 in0.0 mm 0.00 in0.0 mm 0.00 in0.0 mm
02:37 PM 61.6°F16.4°C 35.6°F2.0°C 38% Calm Calm 1.0 mph1.6 kmh 30.07 in1018.3 mb 0.00 in0.0 mm 0.00 in0.0 mm 0.00 in0.0 mm
02:42 PM 62.0°F16.7°C 35.2°F1.8°C 37% 1.0 mph SW1.6 kmh SW 1.0 mph1.6 kmh 30.07 in1018.3 mb 0.00 in0.0 mm 0.00 in0.0 mm 0.00 in0.0 mm
02:47 PM 62.5°F16.9°C 35.9°F2.2°C 37% Calm Calm 1.0 mph1.6 kmh 30.07 in1018.3 mb 0.00 in0.0 mm 0.00 in0.0 mm 0.00 in0.0 mm
02:52 PM 63.0°F17.2°C 34.7°F1.5°C 35% Calm Calm 1.0 mph1.6 kmh 30.07 in1018.3 mb 0.00 in0.0 mm 0.00 in0.0 mm 0.00 in0.0 mm
02:57 PM 62.8°F17.1°C 34.5°F1.4°C 35% Calm Calm 1.0 mph1.6 kmh 30.07 in1018.3 mb 0.00 in0.0 mm 0.00 in0.0 mm 0.00 in0.0 mm
03:02 PM 62.8°F17.1°C 33.8°F1.0°C 34% Calm Calm 1.0 mph1.6 kmh 30.07 in1018.3 mb 0.00 in0.0 mm 0.00 in0.0 mm 0.00 in0.0 mm
03:07 PM 62.6°F17.0°C 35.1°F1.7°C 36% 1.3 mph ESE2.1 kmh ESE 2.0 mph3.2 kmh 30.07 in1018.3 mb 0.00 in0.0 mm 0.00 in0.0 mm 0.00 in0.0 mm
03:12 PM 62.4°F16.9°C 34.9°F1.6°C 36% Calm Calm 3.0 mph4.8 kmh 30.07 in1018.3 mb 0.00 in0.0 mm 0.00 in0.0 mm 0.00 in0.0 mm
03:17 PM 62.5°F16.9°C 35.0°F1.7°C 36% Calm Calm 3.0 mph4.8 kmh 30.07 in1018.3 mb 0.00 in0.0 mm 0.00 in0.0 mm 0.00 in0.0 mm
03:22 PM 62.9°F17.2°C 35.3°F1.8°C 36% Calm Calm 3.0 mph4.8 kmh 30.07 in1018.3 mb 0.00 in0.0 mm 0.00 in0.0 mm 0.00 in0.0 mm
03:27 PM 63.4°F17.4°C 36.0°F2.2°C 36% 1.0 mph SE1.6 kmh SE 3.0 mph4.8 kmh 30.07 in1018.3 mb 0.00 in0.0 mm 0.00 in0.0 mm 0.00 in0.0 mm
03:32 PM 63.1°F17.3°C 35.5°F1.9°C 36% Calm Calm 1.0 mph1.6 kmh 30.06 in1017.9 mb 0.00 in0.0 mm 0.00 in0.0 mm 0.00 in0.0 mm
03:37 PM 63.3°F17.4°C 35.0°F1.7°C 35% 1.0 mph SE1.6 kmh SE 1.0 mph1.6 kmh 30.07 in1018.3 mb 0.00 in0.0 mm 0.00 in0.0 mm 0.00 in0.0 mm
03:42 PM 63.5°F17.5°C 35.1°F1.7°C 35% Calm Calm 1.0 mph1.6 kmh 30.07 in1018.3 mb 0.00 in0.0 mm 0.00 in0.0 mm 0.00 in0.0 mm
03:47 PM 63.5°F17.5°C 35.1°F1.7°C 35% 1.0 mph SE1.6 kmh SE 1.0 mph1.6 kmh 30.07 in1018.3 mb 0.00 in0.0 mm 0.00 in0.0 mm 0.00 in0.0 mm
03:52 PM 62.9°F17.2°C 35.3°F1.8°C 36% Calm Calm 1.0 mph1.6 kmh 30.07 in1018.3 mb 0.00 in0.0 mm 0.00 in0.0 mm 0.00 in0.0 mm
03:57 PM 62.7°F17.1°C 35.2°F1.8°C 36% 1.5 mph ESE2.4 kmh ESE 2.0 mph3.2 kmh 30.07 in1018.3 mb 0.00 in0.0 mm 0.00 in0.0 mm 0.00 in0.0 mm
04:02 PM 62.6°F17.0°C 35.1°F1.7°C 36% 1.8 mph E2.9 kmh E 2.0 mph3.2 kmh 30.07 in1018.3 mb 0.00 in0.0 mm 0.00 in0.0 mm 0.00 in0.0 mm
04:07 PM 62.2°F16.8°C 34.9°F1.6°C 36% Calm Calm 2.0 mph3.2 kmh 30.07 in1018.3 mb 0.00 in0.0 mm 0.00 in0.0 mm 0.00 in0.0 mm
04:12 PM 62.1°F16.7°C 34.8°F1.6°C 36% Calm Calm 2.0 mph3.2 kmh 30.07 in1018.3 mb 0.00 in0.0 mm 0.00 in0.0 mm 0.00 in0.0 mm
04:17 PM 62.2°F16.8°C 34.7°F1.5°C 36% Calm Calm 2.0 mph3.2 kmh 30.08 in1018.6 mb 0.00 in0.0 mm 0.00 in0.0 mm 0.00 in0.0 mm
04:22 PM 62.2°F16.8°C 34.7°F1.5°C 36% Calm Calm -- 30.08 in1018.6 mb 0.00 in0.0 mm 0.00 in0.0 mm 0.00 in0.0 mm
04:27 PM 61.8°F16.6°C 35.7°F2.1°C 38% 1.9 mph E3.1 kmh E 3.0 mph4.8 kmh 30.08 in1018.6 mb 0.00 in0.0 mm 0.00 in0.0 mm 0.00 in0.0 mm
04:32 PM 61.5°F16.4°C 36.1°F2.3°C 39% 1.0 mph E1.6 kmh E 3.0 mph4.8 kmh 30.08 in1018.6 mb 0.00 in0.0 mm 0.00 in0.0 mm 0.00 in0.0 mm
04:37 PM 61.3°F16.3°C 36.0°F2.2°C 39% 1.0 mph E1.6 kmh E 3.0 mph4.8 kmh 30.08 in1018.6 mb 0.00 in0.0 mm 0.00 in0.0 mm 0.00 in0.0 mm
04:42 PM 61.1°F16.2°C 36.4°F2.4°C 40% 1.0 mph ENE1.6 kmh ENE 3.0 mph4.8 kmh 30.08 in1018.6 mb 0.00 in0.0 mm 0.00 in0.0 mm 0.00 in0.0 mm
04:47 PM 61.0°F16.1°C 36.3°F2.4°C 40% 1.0 mph E1.6 kmh E 3.0 mph4.8 kmh 30.08 in1018.6 mb 0.00 in0.0 mm 0.00 in0.0 mm 0.00 in0.0 mm
04:52 PM 60.7°F15.9°C 37.3°F2.9°C 42% 1.8 mph E2.9 kmh E 3.0 mph4.8 kmh 30.08 in1018.6 mb 0.00 in0.0 mm 0.00 in0.0 mm 0.00 in0.0 mm
04:57 PM 60.2°F15.7°C 37.5°F3.1°C 43% 1.9 mph E3.1 kmh E 4.0 mph6.4 kmh 30.08 in1018.6 mb 0.00 in0.0 mm 0.00 in0.0 mm 0.00 in0.0 mm
05:02 PM 59.8°F15.4°C 37.7°F3.2°C 44% 1.7 mph E2.7 kmh E 4.0 mph6.4 kmh 30.08 in1018.6 mb 0.00 in0.0 mm 0.00 in0.0 mm 0.00 in0.0 mm
05:07 PM 59.4°F15.2°C 38.0°F3.3°C 45% 1.6 mph ENE2.6 kmh ENE 4.0 mph6.4 kmh 30.08 in1018.6 mb 0.00 in0.0 mm 0.00 in0.0 mm 0.00 in0.0 mm
05:12 PM 59.1°F15.1°C 37.7°F3.2°C 45% 1.0 mph ENE1.6 kmh ENE 4.0 mph6.4 kmh 30.08 in1018.6 mb 0.00 in0.0 mm 0.00 in0.0 mm 0.00 in0.0 mm
05:17 PM 58.9°F14.9°C 38.1°F3.4°C 46% Calm Calm 3.0 mph4.8 kmh 30.08 in1018.6 mb 0.00 in0.0 mm 0.00 in0.0 mm 0.00 in0.0 mm
05:22 PM 58.6°F14.8°C 37.9°F3.3°C 46% 1.6 mph ENE2.6 kmh ENE 3.0 mph4.8 kmh 30.08 in1018.6 mb 0.00 in0.0 mm 0.00 in0.0 mm 0.00 in0.0 mm
05:27 PM 58.4°F14.7°C 38.2°F3.4°C 47% 1.6 mph E2.6 kmh E 3.0 mph4.8 kmh 30.08 in1018.6 mb 0.00 in0.0 mm 0.00 in0.0 mm 0.00 in0.0 mm
05:32 PM 58.1°F14.5°C 38.0°F3.3°C 47% 1.1 mph ENE1.8 kmh ENE 4.0 mph6.4 kmh 30.08 in1018.6 mb 0.00 in0.0 mm 0.00 in0.0 mm 0.00 in0.0 mm
05:37 PM 57.8°F14.3°C 37.6°F3.1°C 47% 1.8 mph E2.9 kmh E 4.0 mph6.4 kmh 30.08 in1018.6 mb 0.00 in0.0 mm 0.00 in0.0 mm 0.00 in0.0 mm
05:42 PM 57.4°F14.1°C 37.8°F3.2°C 48% 1.0 mph E1.6 kmh E 4.0 mph6.4 kmh 30.08 in1018.6 mb 0.00 in0.0 mm 0.00 in0.0 mm 0.00 in0.0 mm
05:47 PM 57.1°F13.9°C 38.1°F3.4°C 49% 1.2 mph E1.9 kmh E 3.0 mph4.8 kmh 30.08 in1018.6 mb 0.00 in0.0 mm 0.00 in0.0 mm 0.00 in0.0 mm
05:52 PM 56.8°F13.8°C 38.4°F3.6°C 50% Calm Calm 3.0 mph4.8 kmh 30.08 in1018.6 mb 0.00 in0.0 mm 0.00 in0.0 mm 0.00 in0.0 mm
05:57 PM 56.6°F13.7°C 38.2°F3.4°C 50% 1.0 mph E1.6 kmh E 3.0 mph4.8 kmh 30.08 in1018.6 mb 0.00 in0.0 mm 0.00 in0.0 mm 0.00 in0.0 mm
06:02 PM 56.5°F13.6°C 38.1°F3.4°C 50% Calm Calm 2.0 mph3.2 kmh 30.09 in1019.0 mb 0.00 in0.0 mm 0.00 in0.0 mm 0.00 in0.0 mm
06:07 PM 56.4°F13.6°C 38.0°F3.3°C 50% Calm Calm 1.0 mph1.6 kmh 30.09 in1019.0 mb 0.00 in0.0 mm 0.00 in0.0 mm 0.00 in0.0 mm
06:12 PM 56.3°F13.5°C 37.9°F3.3°C 50% Calm Calm 1.0 mph1.6 kmh 30.09 in1019.0 mb 0.00 in0.0 mm 0.00 in0.0 mm 0.00 in0.0 mm
06:17 PM 56.4°F13.6°C 37.4°F3.0°C 49% Calm Calm 1.0 mph1.6 kmh 30.09 in1019.0 mb 0.00 in0.0 mm 0.00 in0.0 mm 0.00 in0.0 mm
06:22 PM 56.4°F13.6°C 37.4°F3.0°C 49% 1.0 mph E1.6 kmh E 1.0 mph1.6 kmh 30.09 in1019.0 mb 0.00 in0.0 mm 0.00 in0.0 mm 0.00 in0.0 mm
06:27 PM 56.5°F13.6°C 38.1°F3.4°C 50% 1.0 mph E1.6 kmh E 1.0 mph1.6 kmh 30.09 in1019.0 mb 0.00 in0.0 mm 0.00 in0.0 mm 0.00 in0.0 mm
06:32 PM 56.3°F13.5°C 37.9°F3.3°C 50% Calm Calm 1.0 mph1.6 kmh 30.10 in1019.3 mb 0.00 in0.0 mm 0.00 in0.0 mm 0.00 in0.0 mm
06:37 PM 56.3°F13.5°C 37.9°F3.3°C 50% 1.0 mph E1.6 kmh E 1.0 mph1.6 kmh 30.10 in1019.3 mb 0.00 in0.0 mm 0.00 in0.0 mm 0.00 in0.0 mm
06:42 PM 56.2°F13.4°C 37.8°F3.2°C 50% Calm Calm 1.0 mph1.6 kmh 30.10 in1019.3 mb 0.00 in0.0 mm 0.00 in0.0 mm 0.00 in0.0 mm
06:47 PM 56.0°F13.3°C 37.6°F3.1°C 50% Calm Calm 1.0 mph1.6 kmh 30.10 in1019.3 mb 0.00 in0.0 mm 0.00 in0.0 mm 0.00 in0.0 mm
06:52 PM 55.7°F13.2°C 37.9°F3.3°C 51% Calm Calm 1.0 mph1.6 kmh 30.10 in1019.3 mb 0.00 in0.0 mm 0.00 in0.0 mm 0.00 in0.0 mm
06:57 PM 55.5°F13.1°C 37.7°F3.2°C 51% Calm Calm -- 30.10 in1019.3 mb 0.00 in0.0 mm 0.00 in0.0 mm 0.00 in0.0 mm
07:02 PM 55.4°F13.0°C 37.6°F3.1°C 51% Calm Calm 1.0 mph1.6 kmh 30.10 in1019.3 mb 0.00 in0.0 mm 0.00 in0.0 mm 0.00 in0.0 mm
07:07 PM 55.4°F13.0°C 37.6°F3.1°C 51% Calm Calm 1.0 mph1.6 kmh 30.10 in1019.3 mb 0.00 in0.0 mm 0.00 in0.0 mm 0.00 in0.0 mm
07:12 PM 55.4°F13.0°C 37.1°F2.8°C 50% 1.0 mph SE1.6 kmh SE 1.0 mph1.6 kmh 30.10 in1019.3 mb 0.00 in0.0 mm 0.00 in0.0 mm 0.00 in0.0 mm
07:17 PM 55.2°F12.9°C 37.4°F3.0°C 51% 1.0 mph SE1.6 kmh SE 1.0 mph1.6 kmh 30.10 in1019.3 mb 0.00 in0.0 mm 0.00 in0.0 mm 0.00 in0.0 mm
07:22 PM 55.1°F12.8°C 37.8°F3.2°C 52% 1.0 mph SE1.6 kmh SE 1.0 mph1.6 kmh 30.11 in1019.6 mb 0.00 in0.0 mm 0.00 in0.0 mm 0.00 in0.0 mm
07:27 PM 55.0°F12.8°C 37.7°F3.2°C 52% 1.0 mph SE1.6 kmh SE 1.0 mph1.6 kmh 30.11 in1019.6 mb 0.00 in0.0 mm 0.00 in0.0 mm 0.00 in0.0 mm
07:32 PM 54.9°F12.7°C 37.6°F3.1°C 52% 1.0 mph SE1.6 kmh SE 1.0 mph1.6 kmh 30.11 in1019.6 mb 0.00 in0.0 mm 0.00 in0.0 mm 0.00 in0.0 mm
07:37 PM 54.8°F12.7°C 37.5°F3.1°C 52% Calm Calm 1.0 mph1.6 kmh 30.11 in1019.6 mb 0.00 in0.0 mm 0.00 in0.0 mm 0.00 in0.0 mm
07:42 PM 54.8°F12.7°C 37.5°F3.1°C 52% 1.0 mph SE1.6 kmh SE 1.0 mph1.6 kmh 30.11 in1019.6 mb 0.00 in0.0 mm 0.00 in0.0 mm 0.00 in0.0 mm
07:47 PM 54.7°F12.6°C 37.4°F3.0°C 52% Calm Calm 1.0 mph1.6 kmh 30.11 in1019.6 mb 0.00 in0.0 mm 0.00 in0.0 mm 0.00 in0.0 mm
07:52 PM 54.8°F12.7°C 37.5°F3.1°C 52% Calm Calm 1.0 mph1.6 kmh 30.12 in1020.0 mb 0.00 in0.0 mm 0.00 in0.0 mm 0.00 in0.0 mm
07:57 PM 54.8°F12.7°C 37.5°F3.1°C 52% 1.0 mph SE1.6 kmh SE 1.0 mph1.6 kmh 30.12 in1020.0 mb 0.00 in0.0 mm 0.00 in0.0 mm 0.00 in0.0 mm
08:02 PM 54.8°F12.7°C 37.5°F3.1°C 52% Calm Calm 1.0 mph1.6 kmh 30.12 in1020.0 mb 0.00 in0.0 mm 0.00 in0.0 mm 0.00 in0.0 mm
08:07 PM 54.8°F12.7°C 37.5°F3.1°C 52% 1.0 mph SE1.6 kmh SE 1.0 mph1.6 kmh 30.12 in1020.0 mb 0.00 in0.0 mm 0.00 in0.0 mm 0.00 in0.0 mm
08:12 PM 54.8°F12.7°C 37.5°F3.1°C 52% Calm Calm 1.0 mph1.6 kmh 30.12 in1020.0 mb 0.00 in0.0 mm 0.00 in0.0 mm 0.00 in0.0 mm
08:17 PM 54.8°F12.7°C 37.0°F2.8°C 51% Calm Calm 1.0 mph1.6 kmh 30.12 in1020.0 mb 0.00 in0.0 mm 0.00 in0.0 mm 0.00 in0.0 mm
08:22 PM 54.7°F12.6°C 36.9°F2.7°C 51% Calm Calm 1.0 mph1.6 kmh 30.12 in1020.0 mb 0.00 in0.0 mm 0.00 in0.0 mm 0.00 in0.0 mm
08:27 PM 54.6°F12.6°C 37.3°F2.9°C 52% 1.0 mph SE1.6 kmh SE 1.0 mph1.6 kmh 30.12 in1020.0 mb 0.00 in0.0 mm 0.00 in0.0 mm 0.00 in0.0 mm
08:32 PM 54.6°F12.6°C 37.3°F2.9°C 52% 1.0 mph ESE1.6 kmh ESE 1.0 mph1.6 kmh 30.12 in1020.0 mb 0.00 in0.0 mm 0.00 in0.0 mm 0.00 in0.0 mm
08:37 PM 54.5°F12.5°C 37.2°F2.9°C 52% Calm Calm 1.0 mph1.6 kmh 30.11 in1019.6 mb 0.00 in0.0 mm 0.00 in0.0 mm 0.00 in0.0 mm
08:42 PM 54.5°F12.5°C 37.2°F2.9°C 52% Calm Calm 1.0 mph1.6 kmh 30.11 in1019.6 mb 0.00 in0.0 mm 0.00 in0.0 mm 0.00 in0.0 mm
08:47 PM 54.3°F12.4°C 37.0°F2.8°C 52% Calm Calm 1.0 mph1.6 kmh 30.11 in1019.6 mb 0.00 in0.0 mm 0.00 in0.0 mm 0.00 in0.0 mm
08:52 PM 54.1°F12.3°C 37.4°F3.0°C 53% Calm Calm -- 30.11 in1019.6 mb 0.00 in0.0 mm 0.00 in0.0 mm 0.00 in0.0 mm
08:57 PM 53.9°F12.2°C 37.7°F3.2°C 54% Calm Calm -- 30.11 in1019.6 mb 0.00 in0.0 mm 0.00 in0.0 mm 0.00 in0.0 mm
09:02 PM 53.7°F12.1°C 37.5°F3.1°C 54% Calm Calm -- 30.12 in1020.0 mb 0.00 in0.0 mm 0.00 in0.0 mm 0.00 in0.0 mm
09:07 PM 53.7°F12.1°C 37.5°F3.1°C 54% Calm Calm -- 30.11 in1019.6 mb 0.00 in0.0 mm 0.00 in0.0 mm 0.00 in0.0 mm
09:12 PM 53.5°F11.9°C 37.7°F3.2°C 55% Calm Calm -- 30.11 in1019.6 mb 0.00 in0.0 mm 0.00 in0.0 mm 0.00 in0.0 mm
09:17 PM 53.3°F11.8°C 37.6°F3.1°C 55% Calm Calm -- 30.12 in1020.0 mb 0.00 in0.0 mm 0.00 in0.0 mm 0.00 in0.0 mm
09:22 PM 53.3°F11.8°C 37.6°F3.1°C 55% Calm Calm -- 30.11 in1019.6 mb 0.00 in0.0 mm 0.00 in0.0 mm 0.00 in0.0 mm
09:27 PM 53.2°F11.8°C 37.0°F2.8°C 54% Calm Calm -- 30.12 in1020.0 mb 0.00 in0.0 mm 0.00 in0.0 mm 0.00 in0.0 mm
09:32 PM 53.0°F11.7°C 37.3°F2.9°C 55% Calm Calm -- 30.12 in1020.0 mb 0.00 in0.0 mm 0.00 in0.0 mm 0.00 in0.0 mm
09:37 PM 52.9°F11.6°C 37.2°F2.9°C 55% Calm Calm 1.0 mph1.6 kmh 30.12 in1020.0 mb 0.00 in0.0 mm 0.00 in0.0 mm 0.00 in0.0 mm
09:42 PM 52.7°F11.5°C 37.0°F2.8°C 55% Calm Calm 1.0 mph1.6 kmh 30.12 in1020.0 mb 0.00 in0.0 mm 0.00 in0.0 mm 0.00 in0.0 mm
09:47 PM 52.4°F11.3°C 37.2°F2.9°C 56% Calm Calm 1.0 mph1.6 kmh 30.11 in1019.6 mb 0.00 in0.0 mm 0.00 in0.0 mm 0.00 in0.0 mm
09:52 PM 52.2°F11.2°C 37.0°F2.8°C 56% Calm Calm -- 30.12 in1020.0 mb 0.00 in0.0 mm 0.00 in0.0 mm 0.00 in0.0 mm
09:57 PM 52.0°F11.1°C 37.2°F2.9°C 57% Calm Calm -- 30.12 in1020.0 mb 0.00 in0.0 mm 0.00 in0.0 mm 0.00 in0.0 mm
10:02 PM 52.2°F11.2°C 37.0°F2.8°C 56% Calm Calm -- 30.11 in1019.6 mb 0.00 in0.0 mm 0.00 in0.0 mm 0.00 in0.0 mm
10:07 PM 52.4°F11.3°C 37.7°F3.2°C 57% Calm Calm -- 30.11 in1019.6 mb 0.00 in0.0 mm 0.00 in0.0 mm 0.00 in0.0 mm
10:12 PM 52.3°F11.3°C 37.6°F3.1°C 57% Calm Calm -- 30.11 in1019.6 mb 0.00 in0.0 mm 0.00 in0.0 mm 0.00 in0.0 mm
10:17 PM 52.1°F11.2°C 37.4°F3.0°C 57% Calm Calm -- 30.11 in1019.6 mb 0.00 in0.0 mm 0.00 in0.0 mm 0.00 in0.0 mm
10:22 PM 52.0°F11.1°C 37.8°F3.2°C 58% Calm Calm -- 30.11 in1019.6 mb 0.00 in0.0 mm 0.00 in0.0 mm 0.00 in0.0 mm
10:27 PM 51.8°F11.0°C 37.6°F3.1°C 58% Calm Calm -- 30.11 in1019.6 mb 0.00 in0.0 mm 0.00 in0.0 mm 0.00 in0.0 mm
10:32 PM 51.8°F11.0°C 37.6°F3.1°C 58% Calm Calm -- 30.11 in1019.6 mb 0.00 in0.0 mm 0.00 in0.0 mm 0.00 in0.0 mm
10:37 PM 51.7°F10.9°C 37.5°F3.1°C 58% Calm Calm -- 30.11 in1019.6 mb 0.00 in0.0 mm 0.00 in0.0 mm 0.00 in0.0 mm
10:42 PM 51.4°F10.8°C 37.2°F2.9°C 58% Calm Calm -- 30.11 in1019.6 mb 0.00 in0.0 mm 0.00 in0.0 mm 0.00 in0.0 mm
10:47 PM 51.0°F10.6°C 37.6°F3.1°C 60% Calm Calm -- 30.11 in1019.6 mb 0.00 in0.0 mm 0.00 in0.0 mm 0.00 in0.0 mm
10:52 PM 50.2°F10.1°C 37.8°F3.2°C 62% Calm Calm -- 30.11 in1019.6 mb 0.00 in0.0 mm 0.00 in0.0 mm 0.00 in0.0 mm
10:57 PM 49.6°F9.8°C 37.9°F3.3°C 64% Calm Calm -- 30.11 in1019.6 mb 0.00 in0.0 mm 0.00 in0.0 mm 0.00 in0.0 mm
11:02 PM 49.4°F9.7°C 38.2°F3.4°C 65% Calm Calm -- 30.11 in1019.6 mb 0.00 in0.0 mm 0.00 in0.0 mm 0.00 in0.0 mm
11:07 PM 49.2°F9.6°C 38.4°F3.6°C 66% Calm Calm -- 30.12 in1020.0 mb 0.00 in0.0 mm 0.00 in0.0 mm 0.00 in0.0 mm
11:12 PM 48.9°F9.4°C 38.5°F3.6°C 67% Calm Calm -- 30.12 in1020.0 mb 0.00 in0.0 mm 0.00 in0.0 mm 0.00 in0.0 mm
11:17 PM 48.7°F9.3°C 38.7°F3.7°C 68% Calm Calm -- 30.12 in1020.0 mb 0.00 in0.0 mm 0.00 in0.0 mm 0.00 in0.0 mm
11:22 PM 48.5°F9.2°C 38.4°F3.6°C 68% Calm Calm -- 30.12 in1020.0 mb 0.00 in0.0 mm 0.00 in0.0 mm 0.00 in0.0 mm
11:27 PM 48.3°F9.1°C 38.7°F3.7°C 69% Calm Calm -- 30.12 in1020.0 mb 0.00 in0.0 mm 0.00 in0.0 mm 0.00 in0.0 mm
11:32 PM 48.1°F8.9°C 38.5°F3.6°C 69% Calm Calm 1.0 mph1.6 kmh 30.12 in1020.0 mb 0.00 in0.0 mm 0.00 in0.0 mm 0.00 in0.0 mm
11:37 PM 48.0°F8.9°C 38.4°F3.6°C 69% 1.0 mph ENE1.6 kmh ENE 1.0 mph1.6 kmh 30.12 in1020.0 mb 0.00 in0.0 mm 0.00 in0.0 mm 0.00 in0.0 mm
11:42 PM 47.9°F8.8°C 38.3°F3.5°C 69% Calm Calm 1.0 mph1.6 kmh 30.12 in1020.0 mb 0.00 in0.0 mm 0.00 in0.0 mm 0.00 in0.0 mm
11:47 PM 47.8°F8.8°C 38.2°F3.4°C 69% 1.0 mph ENE1.6 kmh ENE 1.0 mph1.6 kmh 30.12 in1020.0 mb 0.00 in0.0 mm 0.00 in0.0 mm 0.00 in0.0 mm
11:52 PM 47.9°F8.8°C 38.3°F3.5°C 69% 1.0 mph E1.6 kmh E 1.0 mph1.6 kmh 30.12 in1020.0 mb 0.00 in0.0 mm 0.00 in0.0 mm 0.00 in0.0 mm
11:57 PM 48.0°F8.9°C 38.4°F3.6°C 69% Calm Calm 1.0 mph1.6 kmh 30.12 in1020.0 mb 0.00 in0.0 mm 0.00 in0.0 mm 0.00 in0.0 mm